createdAt,value
2018-07-22T00:01:58.153Z,3.60
2018-07-22T00:04:31.305Z,3.37
2018-07-22T00:07:04.530Z,2.63
2018-07-22T00:09:36.751Z,2.90
2018-07-22T00:12:09.891Z,2.97
2018-07-22T00:14:43.062Z,3.17
2018-07-22T00:17:15.970Z,2.33
2018-07-22T00:19:48.985Z,3.40
2018-07-22T00:22:22.762Z,3.57
2018-07-22T00:24:55.802Z,2.90
2018-07-22T00:27:29.823Z,3.73
2018-07-22T00:30:02.796Z,3.67
2018-07-22T00:32:35.783Z,3.27
2018-07-22T00:35:08.900Z,3.10
2018-07-22T00:37:42.331Z,4.03
2018-07-22T00:40:15.711Z,3.53
2018-07-22T00:42:48.752Z,3.67
2018-07-22T00:45:21.809Z,3.70
2018-07-22T00:47:54.787Z,3.43
2018-07-22T00:50:27.752Z,4.43
2018-07-22T00:53:00.237Z,3.20
2018-07-22T00:55:33.367Z,3.47
2018-07-22T00:58:06.472Z,3.63
2018-07-22T01:00:39.549Z,3.80
2018-07-22T01:03:12.563Z,4.00
2018-07-22T01:05:47.504Z,4.17
2018-07-22T01:08:20.370Z,4.63
2018-07-22T01:10:53.312Z,3.80
2018-07-22T01:13:26.273Z,3.63
2018-07-22T01:15:59.271Z,4.60
2018-07-22T01:18:32.774Z,3.83
2018-07-22T01:21:05.827Z,4.50
2018-07-22T01:23:40.248Z,3.87
2018-07-22T01:26:13.385Z,3.60
2018-07-22T01:28:46.405Z,3.60
2018-07-22T01:31:19.500Z,3.50
2018-07-22T01:33:52.556Z,4.70
2018-07-22T01:36:26.166Z,4.27
2018-07-22T01:38:59.099Z,3.57
2018-07-22T01:41:32.247Z,4.00
2018-07-22T01:44:05.500Z,3.63
2018-07-22T01:46:38.670Z,3.90
2018-07-22T01:49:10.821Z,3.83
2018-07-22T01:51:43.822Z,3.67
2018-07-22T01:54:16.762Z,4.60
2018-07-22T01:56:49.867Z,3.63
2018-07-22T01:59:22.962Z,3.87
2018-07-22T02:01:57.435Z,4.10
2018-07-22T02:04:30.543Z,3.97
2018-07-22T02:07:05.301Z,3.67
2018-07-22T02:09:38.611Z,3.70
2018-07-22T02:12:11.714Z,3.93
2018-07-22T02:14:43.998Z,4.23
2018-07-22T02:17:17.010Z,3.83
2018-07-22T02:19:50.414Z,4.40
2018-07-22T02:22:23.365Z,4.00
2018-07-22T02:24:56.340Z,5.27
2018-07-22T02:27:29.314Z,4.30
2018-07-22T02:30:02.389Z,4.33
2018-07-22T02:32:36.106Z,3.83
2018-07-22T02:35:09.285Z,4.10
2018-07-22T02:37:42.398Z,4.23
2018-07-22T02:40:15.445Z,4.77
2018-07-22T02:42:48.422Z,4.77
2018-07-22T02:45:21.543Z,3.87
2018-07-22T02:47:54.707Z,4.50
2018-07-22T02:50:27.757Z,4.60
2018-07-22T02:53:01.781Z,3.83
2018-07-22T02:55:35.229Z,4.67
2018-07-22T02:58:08.643Z,5.63
2018-07-22T03:00:41.732Z,4.90
2018-07-22T03:03:13.319Z,4.80
2018-07-22T03:05:47.499Z,4.77
2018-07-22T03:08:20.511Z,5.10
2018-07-22T03:10:53.527Z,4.40
2018-07-22T03:13:26.567Z,5.03
2018-07-22T03:15:58.657Z,5.10
2018-07-22T03:18:34.538Z,5.73
2018-07-22T03:21:08.786Z,5.23
2018-07-22T03:23:41.845Z,4.97
2018-07-22T03:26:14.921Z,5.03
2018-07-22T03:28:48.400Z,5.60
2018-07-22T03:31:21.578Z,5.10
2018-07-22T03:33:54.553Z,4.70
2018-07-22T03:36:27.635Z,5.10
2018-07-22T03:39:00.548Z,6.00
2018-07-22T03:41:35.690Z,5.93
2018-07-22T03:44:08.828Z,5.40
2018-07-22T03:46:43.054Z,4.83
2018-07-22T03:49:16.146Z,5.23
2018-07-22T03:51:49.182Z,6.30
2018-07-22T03:54:22.325Z,5.90
2018-07-22T03:56:55.467Z,5.90
2018-07-22T03:59:28.833Z,5.47
2018-07-22T04:02:01.998Z,5.30
2018-07-22T04:04:35.934Z,5.10
2018-07-22T04:07:08.938Z,4.73
2018-07-22T04:09:41.975Z,5.10
2018-07-22T04:12:15.516Z,5.70
2018-07-22T04:14:48.582Z,5.73
2018-07-22T04:17:21.641Z,5.80
2018-07-22T04:19:54.717Z,4.87
2018-07-22T04:22:27.778Z,5.33
2018-07-22T04:25:01.936Z,6.83
2018-07-22T04:27:35.022Z,6.27
2018-07-22T04:30:08.670Z,4.90
2018-07-22T04:32:41.810Z,5.30
2018-07-22T04:35:14.824Z,4.80
2018-07-22T04:37:47.955Z,5.43
2018-07-22T04:40:20.955Z,5.17
2018-07-22T04:42:54.062Z,5.17
2018-07-22T04:45:27.025Z,5.37
2018-07-22T04:47:59.922Z,5.27
2018-07-22T04:50:33.850Z,4.80
2018-07-22T04:53:06.908Z,5.43
2018-07-22T04:55:40.718Z,5.30
2018-07-22T04:58:13.781Z,4.70
2018-07-22T05:00:46.792Z,4.10
2018-07-22T05:03:19.805Z,5.10
2018-07-22T05:05:52.741Z,6.57
2018-07-22T05:08:27.346Z,5.50
2018-07-22T05:11:00.474Z,5.60
2018-07-22T05:13:33.615Z,5.90
2018-07-22T05:16:06.675Z,5.07
2018-07-22T05:18:39.812Z,4.80
2018-07-22T05:21:14.274Z,4.93
2018-07-22T05:23:47.493Z,5.10
2018-07-22T05:26:20.622Z,5.37
2018-07-22T05:28:53.707Z,5.43
2018-07-22T05:31:26.771Z,4.90
2018-07-22T05:33:59.885Z,4.90
2018-07-22T05:36:32.945Z,5.47
2018-07-22T05:39:06.633Z,5.03
2018-07-22T05:41:39.612Z,4.67
2018-07-22T05:44:12.679Z,4.90
2018-07-22T05:46:45.770Z,5.17
2018-07-22T05:49:18.731Z,6.20
2018-07-22T05:51:52.300Z,5.47
2018-07-22T05:54:25.328Z,5.93
2018-07-22T05:56:58.447Z,5.70
2018-07-22T05:59:31.715Z,5.43
2018-07-22T06:02:04.762Z,5.77
2018-07-22T06:04:37.852Z,4.93
2018-07-22T06:07:11.002Z,5.37
2018-07-22T06:09:44.370Z,5.43
2018-07-22T06:12:17.415Z,4.90
2018-07-22T06:14:50.474Z,5.10
2018-07-22T06:17:24.373Z,5.33
2018-07-22T06:19:57.349Z,4.73
2018-07-22T06:22:31.082Z,4.57
2018-07-22T06:25:04.063Z,5.90
2018-07-22T06:27:37.085Z,4.93
2018-07-22T06:30:10.322Z,4.70
2018-07-22T06:32:43.381Z,5.23
2018-07-22T06:35:18.639Z,4.87
2018-07-22T06:37:51.912Z,6.30
2018-07-22T06:40:24.990Z,4.90
2018-07-22T06:42:58.094Z,4.70
2018-07-22T06:45:31.709Z,5.30
2018-07-22T06:48:05.283Z,4.60
2018-07-22T06:50:38.537Z,5.50
2018-07-22T06:53:12.540Z,5.23
2018-07-22T06:55:46.706Z,5.43
2018-07-22T06:58:19.837Z,4.90
2018-07-22T07:00:54.438Z,4.83
2018-07-22T07:03:27.465Z,4.73
2018-07-22T07:06:00.647Z,5.30
2018-07-22T07:08:33.723Z,5.50
2018-07-22T07:11:06.727Z,5.23
2018-07-22T07:13:39.828Z,5.87
2018-07-22T07:16:12.875Z,6.30
2018-07-22T07:18:45.982Z,5.63
2018-07-22T07:21:19.002Z,5.80
2018-07-22T07:23:52.086Z,5.40
2018-07-22T07:26:25.175Z,5.53
2018-07-22T07:28:58.288Z,5.33
2018-07-22T07:31:30.554Z,6.57
2018-07-22T07:34:03.703Z,5.83
2018-07-22T07:36:36.863Z,6.00
2018-07-22T07:39:13.625Z,5.80
2018-07-22T07:41:46.592Z,4.97
2018-07-22T07:44:19.472Z,5.27
2018-07-22T07:46:52.529Z,5.67
2018-07-22T07:49:25.624Z,5.63
2018-07-22T07:51:58.710Z,6.30
2018-07-22T07:54:31.769Z,6.30
2018-07-22T07:57:05.490Z,5.53
2018-07-22T07:59:38.451Z,5.20
2018-07-22T08:02:12.143Z,5.67
2018-07-22T08:04:45.162Z,5.80
2018-07-22T08:07:18.101Z,5.70
2018-07-22T08:09:51.185Z,5.83
2018-07-22T08:12:25.407Z,6.07
2018-07-22T08:14:57.500Z,6.00
2018-07-22T08:17:30.440Z,5.10
2018-07-22T08:20:03.563Z,5.80
2018-07-22T08:22:36.542Z,5.57
2018-07-22T08:25:09.950Z,4.87
2018-07-22T08:27:44.218Z,6.40
2018-07-22T08:30:17.407Z,5.90
2018-07-22T08:32:50.710Z,5.60
2018-07-22T08:35:23.746Z,5.40
2018-07-22T08:37:56.855Z,5.97
2018-07-22T08:40:30.151Z,5.40
2018-07-22T08:43:03.189Z,5.43
2018-07-22T08:45:36.226Z,5.67
2018-07-22T08:48:10.635Z,5.77
2018-07-22T08:50:43.787Z,5.50
2018-07-22T08:53:17.632Z,5.30
2018-07-22T08:55:50.687Z,5.47
2018-07-22T08:58:23.731Z,6.23
2018-07-22T09:00:56.750Z,5.43
2018-07-22T09:03:29.886Z,5.30
2018-07-22T09:06:04.167Z,5.80
2018-07-22T09:08:37.423Z,5.47
2018-07-22T09:11:11.249Z,5.90
2018-07-22T09:13:44.344Z,5.90
2018-07-22T09:16:17.731Z,5.33
2018-07-22T09:18:50.787Z,4.87
2018-07-22T09:21:24.830Z,5.67
2018-07-22T09:23:58.173Z,5.53
2018-07-22T09:26:32.069Z,5.60
2018-07-22T09:29:05.035Z,5.40
2018-07-22T09:31:38.047Z,5.80
2018-07-22T09:34:11.123Z,5.30
2018-07-22T09:36:44.425Z,6.37
2018-07-22T09:39:17.429Z,5.90
2018-07-22T09:41:50.509Z,5.70
2018-07-22T09:44:23.685Z,6.10
2018-07-22T09:46:56.705Z,6.07
2018-07-22T09:49:30.650Z,5.03
2018-07-22T09:52:03.760Z,5.60
2018-07-22T09:54:36.136Z,5.63
2018-07-22T09:57:09.311Z,5.13
2018-07-22T09:59:42.352Z,5.83
2018-07-22T10:02:15.430Z,5.40
2018-07-22T10:04:48.457Z,5.70
2018-07-22T10:07:23.097Z,5.30
2018-07-22T10:09:56.102Z,5.80
2018-07-22T10:12:29.043Z,5.60
2018-07-22T10:15:02.861Z,5.27
2018-07-22T10:17:36.546Z,5.97
2018-07-22T10:20:10.992Z,5.77
2018-07-22T10:22:44.082Z,6.40
2018-07-22T10:25:17.107Z,5.73
2018-07-22T10:27:50.165Z,5.87
2018-07-22T10:30:23.325Z,6.33
2018-07-22T10:32:57.563Z,5.83
2018-07-22T10:35:30.573Z,6.00
2018-07-22T10:38:03.642Z,6.23
2018-07-22T10:40:36.671Z,5.80
2018-07-22T10:43:09.732Z,5.60
2018-07-22T10:45:42.824Z,5.80
2018-07-22T10:48:15.881Z,6.23
2018-07-22T10:50:50.876Z,5.70
2018-07-22T10:53:23.944Z,6.10
2018-07-22T10:55:57.013Z,5.60
2018-07-22T10:58:30.144Z,6.27
2018-07-22T11:01:03.233Z,6.20
2018-07-22T11:03:36.958Z,6.17
2018-07-22T11:06:10.035Z,7.20
2018-07-22T11:08:42.999Z,6.63
2018-07-22T11:11:16.103Z,6.30
2018-07-22T11:13:49.237Z,5.93
2018-07-22T11:16:22.482Z,6.10
2018-07-22T11:18:55.509Z,5.40
2018-07-22T11:21:28.679Z,6.33
2018-07-22T11:24:01.652Z,6.17
2018-07-22T11:26:34.646Z,5.93
2018-07-22T11:29:07.786Z,5.90
2018-07-22T11:31:40.796Z,5.57
2018-07-22T11:34:14.862Z,6.23
2018-07-22T11:36:48.002Z,7.10
2018-07-22T11:39:21.096Z,5.93
2018-07-22T11:41:54.263Z,6.70
2018-07-22T11:44:27.414Z,5.63
2018-07-22T11:47:01.870Z,6.57
2018-07-22T11:49:35.469Z,7.13
2018-07-22T11:52:08.446Z,7.27
2018-07-22T11:54:42.487Z,6.73
2018-07-22T11:57:15.601Z,7.10
2018-07-22T11:59:49.035Z,7.10
2018-07-22T12:02:22.228Z,7.20
2018-07-22T12:04:55.312Z,6.33
2018-07-22T12:07:28.288Z,7.20
2018-07-22T12:10:01.344Z,7.00
2018-07-22T12:12:35.044Z,6.93
2018-07-22T12:15:08.227Z,6.07
2018-07-22T12:17:41.311Z,6.40
2018-07-22T12:20:14.329Z,6.57
2018-07-22T12:22:47.417Z,6.50
2018-07-22T12:25:21.778Z,6.63
2018-07-22T12:27:54.767Z,6.60
2018-07-22T12:30:26.702Z,6.77
2018-07-22T12:32:59.685Z,7.60
2018-07-22T12:35:32.658Z,7.67
2018-07-22T12:38:05.652Z,7.13
2018-07-22T12:40:39.218Z,6.20
2018-07-22T12:43:13.289Z,7.67
2018-07-22T12:45:46.354Z,6.87
2018-07-22T12:48:19.346Z,7.10
2018-07-22T12:50:50.940Z,7.30
2018-07-22T12:53:25.077Z,7.07
2018-07-22T12:56:09.904Z,7.20
2018-07-22T12:58:50.432Z,7.40
2018-07-22T13:01:23.506Z,7.70
2018-07-22T13:03:56.685Z,6.80
2018-07-22T13:06:29.672Z,7.33
2018-07-22T13:09:02.714Z,6.90
2018-07-22T13:11:35.855Z,7.67
2018-07-22T13:14:10.655Z,7.43
2018-07-22T13:16:43.806Z,6.63
2018-07-22T13:19:16.921Z,7.20
2018-07-22T13:21:50.010Z,7.37
2018-07-22T13:24:22.958Z,7.63
2018-07-22T13:26:55.997Z,8.07
2018-07-22T13:29:28.926Z,7.83
2018-07-22T13:32:01.968Z,7.17
2018-07-22T13:34:35.856Z,7.20
2018-07-22T13:37:09.475Z,8.87
2018-07-22T13:39:43.382Z,8.03
2018-07-22T13:42:16.501Z,9.47
2018-07-22T13:44:49.592Z,11.10
2018-07-22T13:47:22.670Z,10.57
2018-07-22T13:49:55.842Z,12.93
2018-07-22T13:52:29.939Z,12.20
2018-07-22T13:55:02.923Z,12.03
2018-07-22T13:57:36.022Z,12.37
2018-07-22T14:00:09.495Z,13.63
2018-07-22T14:02:42.430Z,12.40
2018-07-22T14:05:16.854Z,12.90
2018-07-22T14:07:49.871Z,13.70
2018-07-22T14:10:23.029Z,12.73
2018-07-22T14:12:56.083Z,12.00
2018-07-22T14:15:29.126Z,12.77
2018-07-22T14:18:02.247Z,12.87
2018-07-22T14:20:36.238Z,11.87
2018-07-22T14:23:09.600Z,13.40
2018-07-22T14:25:44.308Z,13.30
2018-07-22T14:28:17.395Z,12.90
2018-07-22T14:30:50.522Z,14.17
2018-07-22T14:33:23.575Z,13.70
2018-07-22T14:35:55.854Z,13.90
2018-07-22T14:38:28.979Z,13.67
2018-07-22T14:41:02.395Z,13.03
2018-07-22T14:43:35.477Z,13.73
2018-07-22T14:46:08.602Z,14.10
2018-07-22T14:48:40.565Z,14.93
2018-07-22T14:51:13.566Z,14.53
2018-07-22T14:53:46.632Z,14.73
2018-07-22T14:56:21.841Z,13.60
2018-07-22T14:58:54.991Z,15.07
2018-07-22T15:01:29.346Z,14.67
2018-07-22T15:04:05.059Z,13.43
2018-07-22T15:06:39.159Z,15.00
2018-07-22T15:09:12.683Z,14.63
2018-07-22T15:11:45.702Z,15.40
2018-07-22T15:14:18.781Z,15.77
2018-07-22T15:16:51.841Z,15.03
2018-07-22T15:19:39.689Z,14.97
2018-07-22T15:22:12.862Z,15.03
2018-07-22T15:24:47.094Z,14.87
2018-07-22T15:27:21.310Z,14.30
2018-07-22T15:29:54.383Z,16.20
2018-07-22T15:32:28.653Z,14.80
2018-07-22T15:35:03.289Z,14.57
2018-07-22T15:37:36.275Z,16.27
2018-07-22T15:40:10.412Z,14.67
2018-07-22T15:42:43.549Z,14.90
2018-07-22T15:45:17.005Z,15.57
2018-07-22T15:47:50.150Z,15.00
2018-07-22T15:50:23.157Z,17.77
2018-07-22T15:52:56.239Z,19.83
2018-07-22T15:55:29.339Z,18.60
2018-07-22T15:58:03.821Z,19.40
2018-07-22T16:00:36.907Z,19.13
2018-07-22T16:03:10.320Z,19.13
2018-07-22T16:05:43.215Z,18.77
2018-07-22T16:08:16.254Z,16.67
2018-07-22T16:15:06.229Z,13.37
2018-07-22T16:17:39.750Z,13.43
2018-07-22T16:20:13.211Z,13.25
2018-07-22T16:22:46.442Z,12.30
2018-07-22T16:25:19.453Z,12.00
2018-07-22T16:27:52.409Z,11.20
2018-07-22T16:30:25.859Z,12.80
2018-07-22T16:32:59.437Z,11.70
2018-07-22T16:35:32.539Z,10.43
2018-07-22T16:38:05.642Z,11.70
2018-07-22T16:40:38.658Z,11.53
2018-07-22T16:43:12.049Z,10.83
2018-07-22T16:45:45.180Z,10.50
2018-07-22T16:48:18.722Z,9.50
2018-07-22T16:50:51.836Z,11.23
2018-07-22T16:53:24.885Z,10.90
2018-07-22T16:55:57.798Z,11.63
2018-07-22T16:58:30.856Z,10.80
2018-07-22T17:01:06.966Z,10.53
2018-07-22T17:03:40.039Z,10.60
2018-07-22T17:06:13.190Z,9.60
2018-07-22T17:08:46.262Z,10.90
2018-07-22T17:11:19.005Z,9.83
2018-07-22T17:13:51.973Z,10.80
2018-07-22T17:16:24.993Z,10.30
2018-07-22T17:18:57.979Z,9.97
2018-07-22T17:21:31.030Z,10.13
2018-07-22T17:24:03.978Z,10.23
2018-07-22T17:26:37.070Z,10.80
2018-07-22T17:29:10.151Z,9.90
2018-07-22T17:31:43.853Z,10.00
2018-07-22T17:34:16.765Z,9.90
2018-07-22T17:36:49.861Z,11.07
2018-07-22T17:39:22.938Z,10.47
2018-07-22T17:41:56.027Z,9.43
2018-07-22T17:44:29.732Z,10.20
2018-07-22T17:47:02.834Z,10.40
2018-07-22T17:49:35.934Z,10.00
2018-07-22T17:52:08.964Z,9.40
2018-07-22T17:54:42.032Z,10.33
2018-07-22T17:57:14.005Z,9.67
2018-07-22T17:59:47.234Z,10.20
2018-07-22T18:02:20.402Z,9.53
2018-07-22T18:04:53.545Z,9.97
2018-07-22T18:07:26.602Z,10.07
2018-07-22T18:09:59.570Z,10.70
2018-07-22T18:12:32.563Z,10.23
2018-07-22T18:15:05.825Z,9.93
2018-07-22T18:17:38.877Z,9.80
2018-07-22T18:20:12.015Z,9.17
2018-07-22T18:22:45.104Z,9.00
2018-07-22T18:25:18.143Z,9.90
2018-07-22T18:27:52.069Z,8.80
2018-07-22T18:30:25.105Z,10.33
2018-07-22T18:32:58.093Z,9.90
2018-07-22T18:35:32.078Z,9.70
2018-07-22T18:38:05.118Z,10.10
2018-07-22T18:40:38.622Z,9.63
2018-07-22T18:43:12.084Z,11.13
2018-07-22T18:45:45.039Z,10.97
2018-07-22T18:48:18.172Z,9.37
2018-07-22T18:50:51.413Z,9.63
2018-07-22T18:53:24.733Z,9.30
2018-07-22T18:55:57.737Z,9.60
2018-07-22T18:58:30.724Z,9.70
2018-07-22T19:01:03.718Z,9.90
2018-07-22T19:03:36.865Z,10.03
2018-07-22T19:06:09.749Z,10.03
2018-07-22T19:08:42.875Z,10.60
2018-07-22T19:11:16.559Z,10.00
2018-07-22T19:13:49.506Z,9.40
2018-07-22T19:16:22.551Z,9.93
2018-07-22T19:18:55.644Z,9.27
2018-07-22T19:21:28.670Z,10.67
2018-07-22T19:24:02.023Z,10.83
2018-07-22T19:26:34.985Z,9.27
2018-07-22T19:29:07.928Z,9.30
2018-07-22T19:31:41.067Z,10.33
2018-07-22T19:34:14.153Z,9.37
2018-07-22T19:36:48.106Z,9.63
2018-07-22T19:39:21.186Z,10.13
2018-07-22T19:41:54.191Z,9.67
2018-07-22T19:44:28.165Z,9.67
2018-07-22T19:47:01.089Z,10.53
2018-07-22T19:49:34.115Z,9.73
2018-07-22T19:52:07.180Z,9.73
2018-07-22T19:54:40.340Z,11.10
2018-07-22T19:57:13.401Z,11.33
2018-07-22T19:59:46.532Z,10.10
2018-07-22T20:02:19.566Z,9.60
2018-07-22T20:04:52.512Z,10.77
2018-07-22T20:07:26.027Z,10.77
2018-07-22T20:09:59.072Z,10.03
2018-07-22T20:12:32.121Z,9.70
2018-07-22T20:15:05.866Z,10.00
2018-07-22T20:17:38.843Z,10.97
2018-07-22T20:20:14.919Z,10.60
2018-07-22T20:22:47.875Z,10.27
2018-07-22T20:25:20.900Z,10.80
2018-07-22T20:27:53.977Z,10.40
2018-07-22T20:30:27.092Z,10.63
2018-07-22T20:33:00.298Z,11.00
2018-07-22T20:35:34.589Z,10.23
2018-07-22T20:38:07.589Z,10.40
2018-07-22T20:40:40.513Z,10.37
2018-07-22T20:43:14.082Z,10.03
2018-07-22T20:45:47.113Z,11.17
2018-07-22T20:48:20.167Z,9.97
2018-07-22T20:50:52.105Z,10.63
2018-07-22T20:53:25.136Z,9.47
2018-07-22T20:55:58.073Z,10.00
2018-07-22T20:58:31.485Z,9.27
2018-07-22T21:01:04.477Z,10.93
2018-07-22T21:03:36.686Z,9.70
2018-07-22T21:06:10.716Z,10.30
2018-07-22T21:08:43.787Z,9.70
2018-07-22T21:11:17.057Z,10.57
2018-07-22T21:13:50.145Z,9.87
2018-07-22T21:16:23.870Z,9.17
2018-07-22T21:18:56.932Z,9.80
2018-07-22T21:21:29.885Z,9.60
2018-07-22T21:24:02.987Z,9.87
2018-07-22T21:26:36.055Z,8.93
2018-07-22T21:29:09.221Z,10.00
2018-07-22T21:31:42.328Z,9.80
2018-07-22T21:34:16.056Z,9.83
2018-07-22T21:36:49.083Z,9.73
2018-07-22T21:39:22.215Z,9.00
2018-07-22T21:41:56.455Z,9.33
2018-07-22T21:44:30.298Z,10.60
2018-07-22T21:47:03.480Z,9.37
2018-07-22T21:49:36.584Z,8.97
2018-07-22T21:52:09.752Z,8.90
2018-07-22T21:54:42.782Z,9.90
2018-07-22T21:57:15.828Z,8.50
2018-07-22T21:59:48.819Z,8.50
2018-07-22T22:02:22.199Z,9.20
2018-07-22T22:04:55.343Z,8.73
2018-07-22T22:07:28.467Z,9.50
2018-07-22T22:10:01.843Z,8.83
2018-07-22T22:12:33.669Z,9.00
2018-07-22T22:15:09.754Z,9.20
2018-07-22T22:17:43.282Z,7.77
2018-07-22T22:20:16.275Z,8.97
2018-07-22T22:22:49.389Z,8.20
2018-07-22T22:25:22.582Z,9.30
2018-07-22T22:27:55.806Z,7.90
2018-07-22T22:30:29.351Z,9.40
2018-07-22T22:33:02.324Z,8.40
2018-07-22T22:35:35.422Z,8.23
2018-07-22T22:38:08.525Z,7.67
2018-07-22T22:40:42.617Z,7.37
2018-07-22T22:43:16.974Z,7.73
2018-07-22T22:45:50.670Z,8.33
2018-07-22T22:48:29.207Z,7.80
2018-07-22T22:51:03.482Z,8.50
2018-07-22T22:53:36.643Z,8.60
2018-07-22T22:56:09.655Z,8.23
2018-07-22T22:58:51.547Z,8.00
2018-07-22T23:01:24.595Z,8.20
2018-07-22T23:03:57.765Z,8.57
2018-07-22T23:06:29.308Z,8.43
2018-07-22T23:09:14.386Z,7.43
2018-07-22T23:11:47.887Z,8.40
2018-07-22T23:14:20.910Z,8.13
2018-07-22T23:16:53.813Z,8.07
2018-07-22T23:19:26.837Z,8.10
2018-07-22T23:21:59.967Z,8.50
2018-07-22T23:24:32.938Z,8.00
2018-07-22T23:27:06.161Z,9.63
2018-07-22T23:29:39.201Z,8.30
2018-07-22T23:32:12.562Z,8.77
2018-07-22T23:34:45.652Z,8.10
2018-07-22T23:37:18.617Z,8.80
2018-07-22T23:39:52.291Z,9.73
2018-07-22T23:42:25.355Z,8.77
2018-07-22T23:44:58.448Z,8.83
2018-07-22T23:47:31.524Z,9.33
2018-07-22T23:50:04.671Z,9.50
2018-07-22T23:52:38.866Z,9.27
2018-07-22T23:55:11.797Z,8.77
2018-07-22T23:57:44.883Z,10.50
